Startpagina
METAR-TAF:

METAR-TAF

Vliegvelden :

Kaapstad, Zuid-Afrika

Cape Town International Airport

breedte: 33-59S, lengte: 018-36E, hoogte: 42 m

Actueel weer

Dit bericht is 32 minuten geleden gemaakt, om 05:30 UTC
Wind 4 kt uit het noorden, variërend tussen het westnoordwesten en het noordoosten
Temperatuur 16°C
Vochtigheid 82%
Druk 1018 hPa
Zicht 10 km of meer
Weinig wolken op 2500 ft

METAR: FACT 240530Z 35004KT 300V050 9999 FEW025 16/13 Q1018 NOSIG

Tijdstip: 08:02 (06:02 UTC)

Verwachting

Dit bericht is 3 uur en het 32 minuten geleden gemaakt, om 02:30 UTC
Verwachting geldig van 24 om 00 UTC tot 25 om 06 UTC
Wind 5 kt uit het noordwesten
Zicht 10 km of meer
Gebroken wolken op 3000 ft
Van 24 om 0900 UTC
Wind 8 kt uit het westzuidwesten
Zicht 10 km of meer
Weinig wolken op 3500 ft
Wijzigt naar
van 24 om 18 UTC tot 24 om 20 UTC
Gebroken wolken op 2500 ft

TAF: FACT 240230Z 2400/2506 32005KT 9999 BKN030 FM240900 25008KT 9999 FEW035 BECMG 2418/2420 BKN025 TX21/2412Z TN12/2404Z

Waarnemingen en weersverwachtingen van meer dan 4000 vliegvelden (METAR en TAF).

De beschikbare stations zijn de gele en rode punten op de kaart.

Ga met uw muis naar het station om de naam te zien.

Klik dan om waarnemingen en weersverwachtingen te zien.

kaart wijzigen: klik op de groene knoppen met een zwart kruis om in te zoomen, op de groene knop met een streepje om uit te zoomen of op de groene pijlen voor aangrenzende kaarten.


METAR-TAF: